createdAt,value
2023-03-08T00:00:25.340Z,16.80
2023-03-08T00:01:25.344Z,18.30
2023-03-08T00:02:25.480Z,18.30
2023-03-08T00:03:26.054Z,19.60
2023-03-08T00:04:25.515Z,17.80
2023-03-08T00:05:25.414Z,18.00
2023-03-08T00:06:25.490Z,20.80
2023-03-08T00:07:25.427Z,18.50
2023-03-08T00:08:25.360Z,18.70
2023-03-08T00:09:25.341Z,17.40
2023-03-08T00:10:25.970Z,18.50
2023-03-08T00:11:26.001Z,19.70
2023-03-08T00:12:25.238Z,19.90
2023-03-08T00:13:25.227Z,18.10
2023-03-08T00:14:25.284Z,19.20
2023-03-08T00:15:25.885Z,19.80
2023-03-08T00:16:25.988Z,18.80
2023-03-08T00:17:25.218Z,16.70
2023-03-08T00:18:25.285Z,19.20
2023-03-08T00:19:25.182Z,18.70
2023-03-08T00:20:25.203Z,18.70
2023-03-08T00:21:25.206Z,17.70
2023-03-08T00:22:25.212Z,19.40
2023-03-08T00:23:25.284Z,17.80
2023-03-08T00:24:26.174Z,20.30
2023-03-08T00:25:25.223Z,19.00
2023-03-08T00:26:25.826Z,18.30
2023-03-08T00:27:26.069Z,17.30
2023-03-08T00:28:25.137Z,20.30
2023-03-08T00:29:25.284Z,20.30
2023-03-08T00:30:25.101Z,19.00
2023-03-08T00:31:25.313Z,18.20
2023-03-08T00:32:25.252Z,20.00
2023-03-08T00:33:25.375Z,21.30
2023-03-08T00:34:25.289Z,19.10
2023-03-08T00:35:26.823Z,22.50
2023-03-08T00:36:25.308Z,19.60
2023-03-08T00:37:25.112Z,19.00
2023-03-08T00:38:25.210Z,19.10
2023-03-08T00:39:25.174Z,20.20
2023-03-08T00:40:25.054Z,22.10
2023-03-08T00:41:25.014Z,21.80
2023-03-08T00:42:25.040Z,22.70
2023-03-08T00:43:25.662Z,23.90
2023-03-08T00:44:25.085Z,25.60
2023-03-08T00:45:26.001Z,25.90
2023-03-08T00:46:25.330Z,25.10
2023-03-08T00:47:25.142Z,26.80
2023-03-08T00:48:25.902Z,24.50
2023-03-08T00:49:25.906Z,25.20
2023-03-08T00:50:25.130Z,27.40
2023-03-08T00:51:25.770Z,31.90
2023-03-08T00:52:25.688Z,31.20
2023-03-08T00:53:24.930Z,32.10
2023-03-08T00:54:25.919Z,22.80
2023-03-08T00:55:25.988Z,30.50
2023-03-08T00:56:24.893Z,30.30
2023-03-08T00:57:25.395Z,27.80
2023-03-08T00:58:24.962Z,33.60
2023-03-08T00:59:24.975Z,30.10
2023-03-08T01:00:24.973Z,33.20
2023-03-08T01:01:25.661Z,26.50
2023-03-08T01:02:25.693Z,29.10
2023-03-08T01:03:24.928Z,37.20
2023-03-08T01:04:25.343Z,34.10
2023-03-08T01:05:24.961Z,30.80
2023-03-08T01:06:25.508Z,31.00
2023-03-08T01:07:25.459Z,27.80
2023-03-08T01:08:25.708Z,26.90
2023-03-08T01:09:24.951Z,30.60
2023-03-08T01:10:25.425Z,28.70
2023-03-08T01:11:24.816Z,30.80
2023-03-08T01:12:24.930Z,32.70
2023-03-08T01:13:24.834Z,31.60
2023-03-08T01:14:24.829Z,30.80
2023-03-08T01:15:25.545Z,30.60
2023-03-08T01:16:26.121Z,29.80
2023-03-08T01:17:24.888Z,27.00
2023-03-08T01:18:25.003Z,32.60
2023-03-08T01:19:24.830Z,32.40
2023-03-08T01:20:25.418Z,29.20
2023-03-08T01:21:57.199Z,31.30
2023-03-08T01:22:24.690Z,32.10
2023-03-08T01:23:25.654Z,31.10
2023-03-08T01:24:24.862Z,33.90
2023-03-08T01:25:24.676Z,29.50
2023-03-08T01:26:24.700Z,32.10
2023-03-08T01:27:24.653Z,31.90
2023-03-08T01:28:24.656Z,27.20
2023-03-08T01:29:24.704Z,28.70
2023-03-08T01:30:24.671Z,29.40
2023-03-08T01:31:24.674Z,28.90
2023-03-08T01:32:24.783Z,27.20
2023-03-08T01:33:24.610Z,31.90
2023-03-08T01:34:24.623Z,31.10
2023-03-08T01:35:24.751Z,31.60
2023-03-08T01:36:24.574Z,31.80
2023-03-08T01:37:24.650Z,29.80
2023-03-08T01:38:24.653Z,31.20
2023-03-08T01:39:24.588Z,31.10
2023-03-08T01:40:25.484Z,31.90
2023-03-08T01:41:25.530Z,34.40
2023-03-08T01:42:24.586Z,31.00
2023-03-08T01:43:24.601Z,32.30
2023-03-08T01:44:24.526Z,31.90
2023-03-08T01:45:24.503Z,32.30
2023-03-08T01:46:24.524Z,32.80
2023-03-08T01:47:24.504Z,34.20
2023-03-08T01:48:24.683Z,29.80
2023-03-08T01:49:24.511Z,30.60
2023-03-08T01:50:25.437Z,31.10
2023-03-08T01:51:24.543Z,31.40
2023-03-08T01:52:24.532Z,35.60
2023-03-08T01:53:24.496Z,33.80
2023-03-08T01:54:24.488Z,36.10
2023-03-08T01:55:24.460Z,40.80
2023-03-08T01:56:24.466Z,35.70
2023-03-08T01:57:24.466Z,42.90
2023-03-08T01:58:24.425Z,36.40
2023-03-08T01:59:24.468Z,40.90
2023-03-08T02:00:24.430Z,43.10
2023-03-08T02:01:24.554Z,45.50
2023-03-08T02:02:24.976Z,45.20
2023-03-08T02:03:24.420Z,45.60
2023-03-08T02:04:24.401Z,47.80
2023-03-08T02:05:24.545Z,49.30
2023-03-08T02:06:24.403Z,51.90
2023-03-08T02:07:24.433Z,44.80
2023-03-08T02:08:24.432Z,43.30
2023-03-08T02:09:24.364Z,51.30
2023-03-08T02:10:24.374Z,47.30
2023-03-08T02:11:25.445Z,45.80
2023-03-08T02:12:24.366Z,46.60
2023-03-08T02:13:24.376Z,43.50
2023-03-08T02:14:24.430Z,46.60
2023-03-08T02:15:24.375Z,40.80
2023-03-08T02:16:24.317Z,50.50
2023-03-08T02:17:24.310Z,40.80
2023-03-08T02:18:24.301Z,49.30
2023-03-08T02:19:24.321Z,48.40
2023-03-08T02:20:24.345Z,44.40
2023-03-08T02:21:24.416Z,43.70
2023-03-08T02:22:24.313Z,39.40
2023-03-08T02:23:24.243Z,45.00
2023-03-08T02:24:24.240Z,41.80
2023-03-08T02:25:24.245Z,38.90
2023-03-08T02:26:24.770Z,39.80
2023-03-08T02:27:24.254Z,45.70
2023-03-08T02:28:24.277Z,33.60
2023-03-08T02:29:24.267Z,38.70
2023-03-08T02:30:24.199Z,44.20
2023-03-08T02:31:24.272Z,43.20
2023-03-08T02:32:24.353Z,40.50
2023-03-08T02:33:24.205Z,42.80
2023-03-08T02:34:24.991Z,41.40
2023-03-08T02:35:24.216Z,38.10
2023-03-08T02:36:24.313Z,35.20
2023-03-08T02:37:24.165Z,39.70
2023-03-08T02:38:24.945Z,38.00
2023-03-08T02:39:24.154Z,39.10
2023-03-08T02:40:24.158Z,35.60
2023-03-08T02:41:24.132Z,36.50
2023-03-08T02:42:24.112Z,37.40
2023-03-08T02:43:24.186Z,38.20
2023-03-08T02:44:24.184Z,41.30
2023-03-08T02:45:24.106Z,43.50
2023-03-08T02:46:24.878Z,42.20
2023-03-08T02:47:24.105Z,42.10
2023-03-08T02:48:24.066Z,43.00
2023-03-08T02:49:24.124Z,43.50
2023-03-08T02:50:24.041Z,43.10
2023-03-08T02:51:24.082Z,42.90
2023-03-08T02:52:24.050Z,43.80
2023-03-08T02:53:24.063Z,41.40
2023-03-08T02:54:24.049Z,39.50
2023-03-08T02:55:24.065Z,40.70
2023-03-08T02:56:24.071Z,41.60
2023-03-08T02:57:24.037Z,42.20
2023-03-08T02:58:24.918Z,44.50
2023-03-08T02:59:24.170Z,46.90
2023-03-08T03:00:24.989Z,46.10
2023-03-08T03:01:24.064Z,45.70
2023-03-08T03:02:23.950Z,43.50
2023-03-08T03:03:23.931Z,44.60
2023-03-08T03:04:23.962Z,44.20
2023-03-08T03:05:23.939Z,48.20
2023-03-08T03:06:24.031Z,46.70
2023-03-08T03:07:23.990Z,44.40
2023-03-08T03:08:23.941Z,46.20
2023-03-08T03:09:23.901Z,45.90
2023-03-08T03:10:24.002Z,47.00
2023-03-08T03:11:23.875Z,50.50
2023-03-08T03:12:23.869Z,45.80
2023-03-08T03:13:24.856Z,45.00
2023-03-08T03:14:23.959Z,47.00
2023-03-08T03:15:24.482Z,47.30
2023-03-08T03:16:24.101Z,44.40
2023-03-08T03:17:23.836Z,43.80
2023-03-08T03:18:23.843Z,43.00
2023-03-08T03:19:23.895Z,50.00
2023-03-08T03:20:23.845Z,44.60
2023-03-08T03:21:23.878Z,44.20
2023-03-08T03:22:23.789Z,51.10
2023-03-08T03:23:23.787Z,46.20
2023-03-08T03:24:23.778Z,48.30
2023-03-08T03:25:23.768Z,45.70
2023-03-08T03:26:23.849Z,53.40
2023-03-08T03:27:23.816Z,54.90
2023-03-08T03:28:23.811Z,51.20
2023-03-08T03:29:23.756Z,52.60
2023-03-08T03:30:23.752Z,56.30
2023-03-08T03:31:23.756Z,53.40
2023-03-08T03:32:23.784Z,52.50
2023-03-08T03:33:23.712Z,50.50
2023-03-08T03:34:23.753Z,52.90
2023-03-08T03:35:23.782Z,50.20
2023-03-08T03:36:23.690Z,45.10
2023-03-08T03:37:23.732Z,53.60
2023-03-08T03:38:23.702Z,47.00
2023-03-08T03:39:23.713Z,49.10
2023-03-08T03:40:23.686Z,50.20
2023-03-08T03:41:23.673Z,47.10
2023-03-08T03:42:23.616Z,48.40
2023-03-08T03:43:23.676Z,47.00
2023-03-08T03:44:23.718Z,45.40
2023-03-08T03:45:23.655Z,41.90
2023-03-08T03:46:24.653Z,46.20
2023-03-08T04:02:37.640Z,31.20
2023-03-08T04:03:37.566Z,37.30
2023-03-08T04:04:38.685Z,49.50
2023-03-08T04:05:38.725Z,49.80
2023-03-08T04:06:38.659Z,44.50
2023-03-08T04:07:38.690Z,51.50
2023-03-08T04:08:38.696Z,46.60
2023-03-08T04:09:38.618Z,50.10
2023-03-08T04:10:39.636Z,49.90
2023-03-08T04:11:38.672Z,49.20
2023-03-08T04:12:38.625Z,52.50
2023-03-08T04:13:38.611Z,52.80
2023-03-08T04:14:38.630Z,51.50
2023-03-08T04:15:38.602Z,49.80
2023-03-08T04:16:38.609Z,48.10
2023-03-08T04:17:38.652Z,50.60
2023-03-08T04:18:39.557Z,61.50
2023-03-08T04:19:38.555Z,53.00
2023-03-08T04:20:38.581Z,62.90
2023-03-08T04:21:38.598Z,56.70
2023-03-08T04:22:38.595Z,50.80
2023-03-08T04:23:38.569Z,49.80
2023-03-08T04:24:38.646Z,55.40
2023-03-08T04:25:38.507Z,58.50
2023-03-08T04:26:39.567Z,56.80
2023-03-08T04:27:38.554Z,55.90
2023-03-08T04:28:38.522Z,62.60
2023-03-08T04:29:38.492Z,64.10
2023-03-08T04:30:38.520Z,57.30
2023-03-08T04:31:39.566Z,60.80
2023-03-08T04:33:10.408Z,62.20
2023-03-08T04:33:38.450Z,60.20
2023-03-08T04:34:38.554Z,61.30
2023-03-08T04:35:38.457Z,60.10
2023-03-08T04:36:38.418Z,58.30
2023-03-08T04:37:39.091Z,57.60
2023-03-08T04:38:38.449Z,56.40
2023-03-08T04:39:38.422Z,51.30
2023-03-08T04:40:38.400Z,54.50
2023-03-08T04:41:38.407Z,53.60
2023-03-08T04:43:10.307Z,56.70
2023-03-08T04:43:38.391Z,53.60
2023-03-08T04:44:38.391Z,58.30
2023-03-08T04:45:38.387Z,53.80
2023-03-08T04:46:38.423Z,51.20
2023-03-08T04:47:39.161Z,50.50
2023-03-08T04:48:38.356Z,52.70
2023-03-08T04:49:38.324Z,48.60
2023-03-08T04:50:38.315Z,54.20
2023-03-08T04:51:38.338Z,50.00
2023-03-08T04:52:38.302Z,50.90
2023-03-08T04:53:38.318Z,46.30
2023-03-08T04:54:38.285Z,47.30
2023-03-08T04:55:38.278Z,47.50
2023-03-08T04:56:38.321Z,46.10
2023-03-08T04:57:38.273Z,49.30
2023-03-08T04:58:38.300Z,49.80
2023-03-08T04:59:38.276Z,52.80
2023-03-08T05:00:39.141Z,51.50
2023-03-08T05:01:38.284Z,51.30
2023-03-08T05:02:39.167Z,53.00
2023-03-08T05:03:38.242Z,51.90
2023-03-08T05:04:38.282Z,42.50
2023-03-08T05:05:38.232Z,47.90
2023-03-08T05:06:38.252Z,41.90
2023-03-08T05:07:38.205Z,48.50
2023-03-08T05:08:38.208Z,47.40
2023-03-08T05:09:38.218Z,43.70
2023-03-08T05:10:38.203Z,44.50
2023-03-08T05:11:38.174Z,38.60
2023-03-08T05:12:38.169Z,42.80
2023-03-08T05:13:38.160Z,42.30
2023-03-08T05:14:38.132Z,38.70
2023-03-08T05:15:38.315Z,39.70
2023-03-08T05:16:38.173Z,43.80
2023-03-08T05:17:38.125Z,48.90
2023-03-08T05:18:38.113Z,44.90
2023-03-08T05:19:38.118Z,48.30
2023-03-08T05:20:38.120Z,39.60
2023-03-08T05:21:38.118Z,42.00
2023-03-08T05:22:55.000Z,42.30
2023-03-08T05:23:40.067Z,39.60
2023-03-08T05:24:39.005Z,37.30
2023-03-08T05:25:38.717Z,34.90
2023-03-08T05:26:38.053Z,36.20
2023-03-08T05:27:38.038Z,38.90
2023-03-08T05:28:38.043Z,38.40
2023-03-08T05:29:38.033Z,36.10
2023-03-08T05:30:38.026Z,34.40
2023-03-08T05:31:38.068Z,41.00
2023-03-08T05:32:38.059Z,32.80
2023-03-08T05:33:38.002Z,37.60
2023-03-08T05:34:38.029Z,53.10
2023-03-08T05:35:38.047Z,109.60
2023-03-08T05:36:37.991Z,57.70
2023-03-08T05:37:37.985Z,54.20
2023-03-08T05:38:38.017Z,39.80
2023-03-08T05:39:37.956Z,35.90
2023-03-08T05:40:37.945Z,37.30
2023-03-08T05:41:38.920Z,42.40
2023-03-08T05:42:37.965Z,38.90
2023-03-08T05:43:37.924Z,37.90
2023-03-08T05:44:37.936Z,38.80
2023-03-08T05:45:38.092Z,37.80
2023-03-08T05:46:37.911Z,33.30
2023-03-08T05:47:37.903Z,37.10
2023-03-08T05:48:37.904Z,33.30
2023-03-08T05:49:37.900Z,32.90
2023-03-08T05:50:37.855Z,34.60
2023-03-08T05:51:37.854Z,31.30
2023-03-08T05:52:37.863Z,25.90
2023-03-08T05:53:37.864Z,31.40
2023-03-08T05:54:37.815Z,31.20
2023-03-08T05:55:38.839Z,33.00
2023-03-08T05:56:37.844Z,30.10
2023-03-08T05:57:37.802Z,29.70
2023-03-08T05:58:40.490Z,29.60
2023-03-08T05:59:37.786Z,27.00
2023-03-08T06:00:37.802Z,52.10
2023-03-08T06:01:37.789Z,38.70
2023-03-08T06:02:37.759Z,41.20
2023-03-08T06:03:37.792Z,37.10
2023-03-08T06:04:37.770Z,30.10
2023-03-08T06:05:37.769Z,30.60
2023-03-08T06:06:37.738Z,31.10
2023-03-08T06:07:37.714Z,32.30
2023-03-08T06:08:37.730Z,35.10
2023-03-08T06:09:37.739Z,29.70
2023-03-08T06:10:37.720Z,30.10
2023-03-08T06:11:37.779Z,26.30
2023-03-08T06:12:37.702Z,28.60
2023-03-08T06:13:37.678Z,29.30
2023-03-08T06:14:37.712Z,28.30
2023-03-08T06:15:37.696Z,24.50
2023-03-08T06:16:37.766Z,25.40
2023-03-08T06:17:37.643Z,25.90
2023-03-08T06:18:37.663Z,24.30
2023-03-08T06:19:37.662Z,24.20
2023-03-08T06:20:37.664Z,28.20
2023-03-08T06:21:37.631Z,27.20
2023-03-08T06:22:37.679Z,27.10
2023-03-08T06:23:37.610Z,23.60
2023-03-08T06:24:37.585Z,21.60
2023-03-08T06:25:37.606Z,22.70
2023-03-08T06:26:37.653Z,22.20
2023-03-08T06:27:37.606Z,23.00
2023-03-08T06:28:37.560Z,28.70
2023-03-08T06:29:37.562Z,22.10
2023-03-08T06:30:37.654Z,21.20
2023-03-08T06:31:37.549Z,22.20
2023-03-08T06:32:37.780Z,21.70
2023-03-08T06:33:37.605Z,20.60
2023-03-08T06:34:37.525Z,19.70
2023-03-08T06:35:37.545Z,20.20
2023-03-08T06:36:37.554Z,22.30
2023-03-08T06:37:37.553Z,21.50
2023-03-08T06:38:37.501Z,22.40
2023-03-08T06:39:37.492Z,25.50
2023-03-08T06:40:38.516Z,32.60
2023-03-08T06:41:37.584Z,24.50
2023-03-08T06:42:41.641Z,23.10
2023-03-08T06:43:38.496Z,22.50
2023-03-08T06:44:39.648Z,27.50
2023-03-08T06:45:38.479Z,24.70
2023-03-08T06:46:37.488Z,28.00
2023-03-08T06:47:37.643Z,28.90
2023-03-08T06:48:37.432Z,30.80
2023-03-08T06:49:38.114Z,27.70
2023-03-08T06:50:37.424Z,28.90
2023-03-08T06:51:37.436Z,28.10
2023-03-08T06:52:37.545Z,27.50
2023-03-08T06:53:37.418Z,26.80
2023-03-08T06:54:37.454Z,33.90
2023-03-08T06:55:37.424Z,30.60
2023-03-08T06:56:37.382Z,32.00
2023-03-08T06:57:37.387Z,30.20
2023-03-08T06:58:37.413Z,30.10
2023-03-08T06:59:37.401Z,25.50
2023-03-08T07:00:37.362Z,27.80
2023-03-08T07:01:37.385Z,26.10
2023-03-08T07:02:37.363Z,23.70
2023-03-08T07:03:37.426Z,23.60
2023-03-08T07:04:37.395Z,24.50
2023-03-08T07:05:37.401Z,25.50
2023-03-08T07:06:37.298Z,25.40
2023-03-08T07:07:37.302Z,27.90
2023-03-08T07:08:37.289Z,26.60
2023-03-08T07:09:37.312Z,29.40
2023-03-08T07:10:37.281Z,27.10
2023-03-08T07:11:38.086Z,29.00
2023-03-08T07:12:37.247Z,26.10
2023-03-08T07:13:37.226Z,29.70
2023-03-08T07:14:37.256Z,28.10
2023-03-08T07:15:37.238Z,27.10
2023-03-08T07:16:37.278Z,28.40
2023-03-08T07:17:37.237Z,30.70
2023-03-08T07:18:37.197Z,36.10
2023-03-08T07:19:37.220Z,35.60
2023-03-08T07:20:37.180Z,37.80
2023-03-08T07:21:37.197Z,33.80
2023-03-08T07:22:37.165Z,37.00
2023-03-08T07:23:37.156Z,33.70
2023-03-08T07:24:37.182Z,40.30
2023-03-08T07:25:37.162Z,43.50
2023-03-08T07:26:37.125Z,32.60
2023-03-08T07:27:37.177Z,40.70
2023-03-08T07:28:37.162Z,29.90
2023-03-08T07:29:37.108Z,40.70
2023-03-08T07:30:37.181Z,40.60
2023-03-08T07:31:37.106Z,31.30
2023-03-08T07:32:37.201Z,31.10
2023-03-08T07:33:38.078Z,25.90
2023-03-08T07:34:37.085Z,19.40
2023-03-08T07:35:39.012Z,20.40
2023-03-08T07:36:37.094Z,17.00
2023-03-08T07:37:37.066Z,19.40
2023-03-08T07:38:37.059Z,22.20
2023-03-08T07:39:37.077Z,19.70
2023-03-08T07:40:37.172Z,24.40
2023-03-08T07:41:37.053Z,21.70
2023-03-08T07:42:37.063Z,22.50
2023-03-08T07:43:37.021Z,17.60
2023-03-08T07:44:37.052Z,19.40
2023-03-08T07:46:08.966Z,23.80
2023-03-08T07:46:37.071Z,21.30
2023-03-08T07:48:08.928Z,22.90
2023-03-08T07:48:37.002Z,16.40
2023-03-08T07:50:09.596Z,18.60
2023-03-08T07:50:36.998Z,20.90
2023-03-08T07:51:36.954Z,20.20
2023-03-08T07:52:36.962Z,20.60
2023-03-08T07:53:36.953Z,23.20
2023-03-08T07:54:36.933Z,25.80
2023-03-08T07:55:36.918Z,21.10
2023-03-08T07:56:36.913Z,22.30
2023-03-08T07:57:36.914Z,23.50
2023-03-08T07:58:36.893Z,19.10
2023-03-08T07:59:36.881Z,21.70
2023-03-08T08:00:36.875Z,19.40
2023-03-08T08:01:36.935Z,16.00
2023-03-08T08:02:36.892Z,18.60
2023-03-08T08:03:37.043Z,17.70
2023-03-08T08:04:36.844Z,18.10
2023-03-08T08:05:36.908Z,17.00
2023-03-08T08:06:36.834Z,18.10
2023-03-08T08:07:36.873Z,16.80
2023-03-08T08:08:36.845Z,18.50
2023-03-08T08:09:36.846Z,15.00
2023-03-08T08:11:09.623Z,15.20
2023-03-08T08:11:36.824Z,13.80
2023-03-08T08:12:36.815Z,19.50
2023-03-08T08:13:36.822Z,16.50
2023-03-08T08:14:36.826Z,16.30
2023-03-08T08:15:36.779Z,17.40
2023-03-08T08:16:36.816Z,19.30
2023-03-08T08:17:36.756Z,18.00
2023-03-08T08:18:36.901Z,20.20
2023-03-08T08:19:36.782Z,15.40
2023-03-08T08:20:36.763Z,20.80
2023-03-08T08:21:36.729Z,23.70
2023-03-08T08:22:36.768Z,17.30
2023-03-08T08:23:36.742Z,18.70
2023-03-08T08:24:36.752Z,14.10
2023-03-08T08:25:36.724Z,20.00
2023-03-08T08:26:36.671Z,23.80
2023-03-08T08:27:36.700Z,18.90
2023-03-08T08:28:36.700Z,15.90
2023-03-08T08:29:36.668Z,17.50
2023-03-08T08:30:36.665Z,21.40
2023-03-08T08:31:36.661Z,20.10
2023-03-08T08:32:36.702Z,25.40
2023-03-08T08:33:36.661Z,23.90
2023-03-08T08:34:36.637Z,19.90
2023-03-08T08:35:43.169Z,21.30
2023-03-08T08:36:38.649Z,24.10
2023-03-08T08:37:36.587Z,20.00
2023-03-08T08:38:36.618Z,21.10
2023-03-08T08:39:36.578Z,20.60
2023-03-08T08:40:36.560Z,17.10
2023-03-08T08:41:36.593Z,25.50
2023-03-08T08:42:36.595Z,25.30
2023-03-08T08:43:36.595Z,29.90
2023-03-08T08:44:36.524Z,31.30
2023-03-08T08:45:36.611Z,32.70
2023-03-08T08:46:36.601Z,36.80
2023-03-08T08:47:36.624Z,49.30
2023-03-08T08:48:36.512Z,39.10
2023-03-08T08:49:36.497Z,34.50
2023-03-08T08:50:36.505Z,24.20
2023-03-08T08:51:36.508Z,22.50
2023-03-08T08:52:36.615Z,28.30
2023-03-08T08:53:36.461Z,22.00
2023-03-08T08:54:36.573Z,27.70
2023-03-08T08:55:36.472Z,22.30
2023-03-08T08:56:36.487Z,20.80
2023-03-08T08:57:36.486Z,23.70
2023-03-08T08:58:36.420Z,20.50
2023-03-08T08:59:36.437Z,22.10
2023-03-08T09:00:36.445Z,16.50
2023-03-08T09:01:36.400Z,19.80
2023-03-08T09:02:36.513Z,27.20
2023-03-08T09:03:36.452Z,33.20
2023-03-08T09:04:36.529Z,37.20
2023-03-08T09:05:37.202Z,38.10
2023-03-08T09:06:36.365Z,27.90
2023-03-08T09:07:38.230Z,28.40
2023-03-08T09:08:37.354Z,31.30
2023-03-08T09:09:36.364Z,29.70
2023-03-08T09:10:37.227Z,33.40
2023-03-08T09:11:48.334Z,40.20
2023-03-08T09:12:38.483Z,33.20
2023-03-08T09:13:36.342Z,29.30
2023-03-08T09:14:36.361Z,28.40
2023-03-08T09:15:36.341Z,25.90
2023-03-08T09:16:36.319Z,32.00
2023-03-08T09:17:36.298Z,24.50
2023-03-08T09:18:36.276Z,28.70
2023-03-08T09:19:36.443Z,34.50
2023-03-08T09:20:36.323Z,28.90
2023-03-08T09:21:36.267Z,32.40
2023-03-08T09:22:36.281Z,34.50
2023-03-08T09:23:36.297Z,34.40
2023-03-08T09:24:36.292Z,33.20
2023-03-08T09:25:36.259Z,31.10
2023-03-08T09:26:36.254Z,26.90
2023-03-08T09:27:37.247Z,33.90
2023-03-08T09:28:36.269Z,30.30
2023-03-08T09:29:36.233Z,30.20
2023-03-08T09:30:36.257Z,38.80
2023-03-08T09:31:36.220Z,31.40
2023-03-08T09:32:36.271Z,37.90
2023-03-08T09:33:36.218Z,39.40
2023-03-08T09:34:36.198Z,38.00
2023-03-08T09:35:36.287Z,40.90
2023-03-08T09:36:36.183Z,35.00
2023-03-08T09:37:36.191Z,34.60
2023-03-08T09:38:36.178Z,32.40
2023-03-08T09:39:36.126Z,38.10
2023-03-08T09:40:36.209Z,32.10
2023-03-08T09:41:36.161Z,29.10
2023-03-08T09:42:36.120Z,30.80
2023-03-08T09:43:36.124Z,34.20
2023-03-08T09:44:36.104Z,40.50
2023-03-08T09:45:36.110Z,45.80
2023-03-08T09:46:36.124Z,44.10
2023-03-08T09:47:36.165Z,59.00
2023-03-08T09:48:36.138Z,47.20
2023-03-08T09:49:36.099Z,52.80
2023-03-08T09:50:36.117Z,54.40
2023-03-08T09:51:36.457Z,63.80
2023-03-08T09:52:36.069Z,52.70
2023-03-08T09:53:36.129Z,56.30
2023-03-08T09:54:36.061Z,52.90
2023-03-08T09:55:36.015Z,42.50
2023-03-08T09:56:36.035Z,44.00
2023-03-08T09:57:36.826Z,39.80
2023-03-08T09:58:36.039Z,55.40
2023-03-08T09:59:35.990Z,48.50
2023-03-08T10:00:36.087Z,48.10
2023-03-08T10:01:36.050Z,39.60
2023-03-08T10:02:36.012Z,45.00
2023-03-08T10:03:36.491Z,41.90
2023-03-08T10:04:37.014Z,50.20
2023-03-08T10:05:35.974Z,45.70
2023-03-08T10:06:35.939Z,57.80
2023-03-08T10:07:35.924Z,45.50
2023-03-08T10:08:35.920Z,47.90
2023-03-08T10:09:35.916Z,39.20
2023-03-08T10:10:35.904Z,41.80
2023-03-08T10:11:35.930Z,38.30
2023-03-08T10:12:35.884Z,39.10
2023-03-08T10:13:35.902Z,45.20
2023-03-08T10:14:35.916Z,36.10
2023-03-08T10:15:35.862Z,47.00
2023-03-08T10:16:35.985Z,46.10
2023-03-08T10:17:36.695Z,40.30
2023-03-08T10:18:35.908Z,38.80
2023-03-08T10:19:35.845Z,64.50
2023-03-08T10:20:35.851Z,51.40
2023-03-08T10:21:35.858Z,53.50
2023-03-08T10:22:35.802Z,43.00
2023-03-08T10:23:35.828Z,35.70
2023-03-08T10:24:35.824Z,35.60
2023-03-08T10:25:35.779Z,38.20
2023-03-08T10:26:35.802Z,32.50
2023-03-08T10:27:35.773Z,35.30
2023-03-08T10:28:35.803Z,33.20
2023-03-08T10:29:35.781Z,29.90
2023-03-08T10:30:35.805Z,32.80
2023-03-08T10:31:35.713Z,41.70
2023-03-08T10:32:36.598Z,38.10
2023-03-08T10:34:09.139Z,39.70
2023-03-08T10:34:36.775Z,45.40
2023-03-08T10:35:35.773Z,38.60
2023-03-08T10:36:35.772Z,33.70
2023-03-08T10:37:35.676Z,43.00
2023-03-08T10:38:35.798Z,31.50
2023-03-08T10:39:35.770Z,29.80
2023-03-08T10:40:35.711Z,31.20
2023-03-08T10:41:35.720Z,28.00
2023-03-08T10:42:35.726Z,29.20
2023-03-08T10:43:35.661Z,35.90
2023-03-08T10:44:35.635Z,47.00
2023-03-08T10:45:35.650Z,35.60
2023-03-08T10:46:35.670Z,28.20
2023-03-08T10:47:35.622Z,33.10
2023-03-08T10:48:35.638Z,33.40
2023-03-08T10:50:08.099Z,41.80
2023-03-08T10:50:35.614Z,47.10
2023-03-08T10:51:35.659Z,33.50
2023-03-08T10:52:35.623Z,36.50
2023-03-08T10:53:35.588Z,43.70
2023-03-08T10:54:35.570Z,35.10
2023-03-08T10:55:35.551Z,35.40
2023-03-08T10:56:35.625Z,32.10
2023-03-08T10:57:35.567Z,34.00
2023-03-08T10:58:35.563Z,33.80
2023-03-08T10:59:35.580Z,35.40
2023-03-08T11:00:35.541Z,29.80
2023-03-08T11:01:35.493Z,26.50
2023-03-08T11:02:35.577Z,23.90
2023-03-08T11:04:08.717Z,22.60
2023-03-08T11:04:35.538Z,18.80
2023-03-08T11:05:35.512Z,19.00
2023-03-08T11:06:35.486Z,17.50
2023-03-08T11:07:35.475Z,19.80
2023-03-08T11:08:35.480Z,19.80
2023-03-08T11:09:42.337Z,21.50
2023-03-08T11:10:35.760Z,18.40
2023-03-08T11:11:36.285Z,19.60
2023-03-08T11:12:36.033Z,17.30
2023-03-08T11:13:35.594Z,16.40
2023-03-08T11:14:35.582Z,14.80
2023-03-08T11:15:35.527Z,19.20
2023-03-08T11:20:01.145Z,14.20
2023-03-08T11:21:01.172Z,15.80
2023-03-08T11:22:01.297Z,16.90
2023-03-08T11:23:01.123Z,19.90
2023-03-08T11:24:01.173Z,15.20
2023-03-08T11:25:01.152Z,16.30
2023-03-08T11:26:01.117Z,16.70
2023-03-08T11:27:02.581Z,17.00
2023-03-08T11:28:02.315Z,19.20
2023-03-08T11:29:02.336Z,18.20
2023-03-08T11:30:02.316Z,21.40
2023-03-08T11:31:02.450Z,19.10
2023-03-08T11:32:02.321Z,22.50
2023-03-08T11:33:02.493Z,21.70
2023-03-08T11:34:02.466Z,23.50
2023-03-08T11:35:03.321Z,23.80
2023-03-08T11:36:02.263Z,23.90
2023-03-08T11:37:03.178Z,33.80
2023-03-08T11:38:02.314Z,21.70
2023-03-08T11:39:36.458Z,22.30
2023-03-08T11:40:03.693Z,22.90
2023-03-08T11:44:06.342Z,27.00
2023-03-08T11:47:46.950Z,17.90
2023-03-08T11:48:48.161Z,16.20
2023-03-08T11:49:48.114Z,19.80
2023-03-08T11:50:48.837Z,21.00
2023-03-08T11:51:48.023Z,23.00
2023-03-08T11:52:50.790Z,30.70
2023-03-08T11:53:51.427Z,27.30
2023-03-08T11:54:49.951Z,29.40
2023-03-08T11:55:50.759Z,26.50
2023-03-08T11:58:56.295Z,24.00
2023-03-08T12:07:59.841Z,19.40
2023-03-08T12:11:59.085Z,26.30
2023-03-08T12:13:07.662Z,22.70
2023-03-08T12:14:00.293Z,24.40
2023-03-08T12:15:01.246Z,29.30
2023-03-08T12:16:00.407Z,30.00
2023-03-08T12:17:00.401Z,36.70
2023-03-08T12:18:00.342Z,50.40
2023-03-08T12:19:01.088Z,46.10
2023-03-08T12:20:00.291Z,38.20
2023-03-08T12:21:00.223Z,38.60
2023-03-08T12:22:00.840Z,53.70
2023-03-08T12:23:00.271Z,56.90
2023-03-08T12:24:02.752Z,53.40
2023-03-08T12:25:00.188Z,44.30
2023-03-08T12:26:00.258Z,39.20
2023-03-08T12:27:00.171Z,36.40
2023-03-08T12:28:00.187Z,42.00
2023-03-08T12:29:00.174Z,48.50
2023-03-08T12:30:01.297Z,45.40
2023-03-08T12:31:00.170Z,39.90
2023-03-08T12:32:00.386Z,45.40
2023-03-08T12:33:00.386Z,52.60
2023-03-08T12:34:00.168Z,44.60
2023-03-08T12:35:00.115Z,29.40
2023-03-08T12:36:00.180Z,28.90
2023-03-08T12:37:00.126Z,27.90
2023-03-08T12:38:00.186Z,28.60
2023-03-08T12:39:00.146Z,25.80
2023-03-08T12:40:00.061Z,24.80
2023-03-08T12:41:32.732Z,24.80
2023-03-08T12:42:31.998Z,25.30
2023-03-08T12:43:00.033Z,22.70
2023-03-08T12:44:32.758Z,26.10
2023-03-08T12:45:33.852Z,23.90
2023-03-08T12:46:33.850Z,23.80
2023-03-08T12:47:32.438Z,22.20
2023-03-08T12:48:00.091Z,21.50
2023-03-08T12:49:34.489Z,18.00
2023-03-08T12:50:00.063Z,18.80
2023-03-08T12:51:00.459Z,18.90
2023-03-08T12:52:00.979Z,16.40
2023-03-08T12:52:59.965Z,18.40
2023-03-08T12:53:59.958Z,18.00
2023-03-08T12:55:32.030Z,17.70
2023-03-08T12:55:59.956Z,16.00
2023-03-08T12:56:59.943Z,17.00
2023-03-08T12:58:00.836Z,17.20
2023-03-08T12:59:00.841Z,18.90
2023-03-08T12:59:59.924Z,22.80
2023-03-08T13:00:59.950Z,18.40
2023-03-08T13:02:00.187Z,18.60
2023-03-08T13:02:59.934Z,19.90
2023-03-08T13:04:43.083Z,18.10
2023-03-08T13:05:00.887Z,20.80
2023-03-08T13:06:00.394Z,18.90
2023-03-08T13:06:59.848Z,17.50
2023-03-08T13:07:59.810Z,16.10
2023-03-08T13:08:59.814Z,17.50
2023-03-08T13:10:00.056Z,16.70
2023-03-08T13:10:59.812Z,21.70
2023-03-08T13:11:59.862Z,17.70
2023-03-08T13:12:59.836Z,17.70
2023-03-08T13:14:00.788Z,18.20
2023-03-08T13:14:59.871Z,17.90
2023-03-08T13:15:59.765Z,16.40
2023-03-08T13:16:59.861Z,16.60
2023-03-08T13:17:59.792Z,16.60
2023-03-08T13:18:59.813Z,15.60
2023-03-08T13:19:59.763Z,17.60
2023-03-08T13:20:59.817Z,14.30
2023-03-08T13:21:59.763Z,16.50
2023-03-08T13:22:59.744Z,16.90
2023-03-08T13:23:59.731Z,17.20
2023-03-08T13:24:59.819Z,17.80
2023-03-08T13:25:59.722Z,17.00
2023-03-08T13:26:59.780Z,15.90
2023-03-08T13:27:59.731Z,15.70
2023-03-08T13:28:59.765Z,16.30
2023-03-08T13:29:59.775Z,15.10